createdAt,value
2023-04-09T00:01:15.522Z,84107.78
2023-04-09T00:04:18.197Z,84115.66
2023-04-09T00:07:20.724Z,84117.22
2023-04-09T00:10:23.528Z,84115.69
2023-04-09T00:13:38.519Z,84112.47
2023-04-09T00:16:42.444Z,84108.56
2023-04-09T00:19:44.840Z,84104.59
2023-04-09T00:22:48.555Z,84107.75
2023-04-09T00:25:51.128Z,84104.59
2023-04-09T00:28:54.267Z,84104.59
2023-04-09T00:31:56.840Z,84108.59
2023-04-09T00:34:59.581Z,84107.78
2023-04-09T00:38:01.909Z,84115.66
2023-04-09T00:41:04.664Z,84115.66
2023-04-09T00:44:06.970Z,84117.22
2023-04-09T00:47:09.900Z,84111.72
2023-04-09T00:50:12.387Z,84114.09
2023-04-09T00:53:16.237Z,84106.22
2023-04-09T00:56:21.631Z,84112.53
2023-04-09T00:59:25.642Z,84110.94
2023-04-09T01:02:28.737Z,84112.53
2023-04-09T01:05:44.045Z,84123.59
2023-04-09T01:09:17.691Z,84122.78
2023-04-09T01:12:32.511Z,84125.16
2023-04-09T01:15:40.093Z,84120.41
2023-04-09T01:18:51.834Z,84122.81
2023-04-09T01:21:57.861Z,84122.00
2023-04-09T01:25:13.555Z,84124.34
2023-04-09T01:28:19.104Z,84133.06
2023-04-09T01:31:28.789Z,84128.28
2023-04-09T01:34:32.356Z,84131.44
2023-04-09T01:37:35.779Z,84137.75
2023-04-09T01:40:38.340Z,84125.13
2023-04-09T01:43:42.317Z,84128.28
2023-04-09T01:46:47.219Z,84126.75
2023-04-09T01:49:50.740Z,84129.09
2023-04-09T01:52:53.671Z,84121.19
2023-04-09T01:55:56.891Z,84125.16
2023-04-09T01:58:59.403Z,84133.06
2023-04-09T02:02:08.499Z,84130.66
2023-04-09T02:05:15.492Z,84133.81
2023-04-09T02:08:21.556Z,84139.37
2023-04-09T02:11:28.251Z,84145.66
2023-04-09T02:14:32.872Z,84145.66
2023-04-09T02:17:35.698Z,84153.56
2023-04-09T02:20:38.096Z,84159.12
2023-04-09T02:23:40.880Z,84153.56
2023-04-09T02:26:43.326Z,84147.25
2023-04-09T02:29:46.564Z,84147.25
2023-04-09T02:32:49.051Z,84144.09
2023-04-09T02:35:51.732Z,84149.63
2023-04-09T02:38:54.876Z,84140.16
2023-04-09T02:41:58.134Z,84140.16
2023-04-09T02:45:01.815Z,84140.94
2023-04-09T02:48:07.229Z,84139.37
2023-04-09T02:51:09.796Z,84140.94
2023-04-09T02:54:12.595Z,84142.56
2023-04-09T02:57:14.954Z,84140.94
2023-04-09T03:00:17.769Z,84148.84
2023-04-09T03:03:20.362Z,84147.25
2023-04-09T03:06:23.333Z,84144.09
2023-04-09T03:09:25.892Z,84144.12
2023-04-09T03:12:28.458Z,84150.47
2023-04-09T03:15:30.808Z,84148.84
2023-04-09T03:18:33.473Z,84150.41
2023-04-09T03:21:35.805Z,84155.16
2023-04-09T03:24:38.529Z,84153.56
2023-04-09T03:27:41.237Z,84152.78
2023-04-09T03:30:44.562Z,84153.63
2023-04-09T03:33:47.078Z,84158.31
2023-04-09T03:36:49.826Z,84164.63
2023-04-09T03:39:52.850Z,84155.16
2023-04-09T03:42:56.338Z,84158.31
2023-04-09T03:45:58.737Z,84150.44
2023-04-09T03:49:01.892Z,84144.09
2023-04-09T03:52:07.304Z,84142.53
2023-04-09T03:55:10.936Z,84140.94
2023-04-09T03:58:13.572Z,84139.37
2023-04-09T04:01:16.622Z,84133.03
2023-04-09T04:04:23.399Z,84134.59
2023-04-09T04:07:27.150Z,84129.91
2023-04-09T04:10:30.824Z,84133.03
2023-04-09T04:13:33.332Z,84128.28
2023-04-09T04:16:37.169Z,84133.03
2023-04-09T04:19:39.859Z,84129.91
2023-04-09T04:22:42.550Z,84137.75
2023-04-09T04:25:44.947Z,84133.81
2023-04-09T04:28:48.340Z,84133.03
2023-04-09T04:31:51.164Z,84139.37
2023-04-09T04:34:55.336Z,84142.50
2023-04-09T04:37:58.433Z,84145.66
2023-04-09T04:41:02.879Z,84149.63
2023-04-09T04:44:06.566Z,84148.03
2023-04-09T04:47:09.570Z,84153.53
2023-04-09T04:50:12.145Z,84146.44
2023-04-09T04:53:15.434Z,84147.25
2023-04-09T04:56:18.468Z,84145.66
2023-04-09T04:59:21.412Z,84139.37
2023-04-09T05:02:24.701Z,84138.53
2023-04-09T05:05:28.085Z,84131.44
2023-04-09T05:08:30.436Z,84128.28
2023-04-09T05:11:33.501Z,84140.94
2023-04-09T05:14:36.410Z,84142.53
2023-04-09T05:17:39.147Z,84134.59
2023-04-09T05:20:42.093Z,84134.59
2023-04-09T05:23:44.989Z,84131.44
2023-04-09T05:26:47.357Z,84133.00
2023-04-09T05:29:50.499Z,84121.94
2023-04-09T05:32:53.246Z,84125.09
2023-04-09T05:35:56.775Z,84123.53
2023-04-09T05:38:59.214Z,84126.69
2023-04-09T05:42:02.236Z,84130.63
2023-04-09T05:45:05.524Z,84139.34
2023-04-09T05:48:08.401Z,84137.00
2023-04-09T05:51:11.247Z,84130.63
2023-04-09T05:54:14.076Z,84129.84
2023-04-09T05:57:16.908Z,84123.50
2023-04-09T06:00:21.791Z,84115.66
2023-04-09T06:03:24.676Z,84109.28
2023-04-09T06:06:27.207Z,84101.41
2023-04-09T06:09:29.973Z,84110.88
2023-04-09T06:12:34.833Z,84106.12
2023-04-09T06:15:39.365Z,84096.66
2023-04-09T06:18:42.585Z,84080.06
2023-04-09T06:21:45.367Z,84084.00
2023-04-09T06:24:47.777Z,84083.22
2023-04-09T06:27:50.611Z,84079.25
2023-04-09T06:30:54.650Z,84072.97
2023-04-09T06:33:57.427Z,84071.37
2023-04-09T06:36:59.981Z,84060.28
2023-04-09T06:40:03.347Z,84068.19
2023-04-09T06:43:06.397Z,84074.53
2023-04-09T06:46:11.557Z,84061.09
2023-04-09T06:49:13.901Z,84061.88
2023-04-09T06:52:16.680Z,84049.28
2023-04-09T06:55:19.380Z,84046.06
2023-04-09T06:58:22.294Z,84042.13
2023-04-09T07:01:25.622Z,84033.41
2023-04-09T07:04:28.508Z,84031.81
2023-04-09T07:07:31.668Z,84025.50
2023-04-09T07:10:34.327Z,84027.09
2023-04-09T07:13:36.710Z,84030.22
2023-04-09T07:16:39.368Z,84031.00
2023-04-09T07:19:41.792Z,84028.66
2023-04-09T07:22:44.495Z,84022.31
2023-04-09T07:25:47.352Z,84015.97
2023-04-09T07:28:50.662Z,84015.97
2023-04-09T07:31:53.154Z,84006.47
2023-04-09T07:34:57.393Z,83998.56
2023-04-09T07:37:59.913Z,83993.84
2023-04-09T07:41:02.552Z,83984.34
2023-04-09T07:44:06.564Z,83971.66
2023-04-09T07:47:09.727Z,83963.03
2023-04-09T07:50:12.994Z,83943.22
2023-04-09T07:53:15.696Z,83949.53
2023-04-09T07:56:18.137Z,83933.66
2023-04-09T07:59:20.866Z,83920.19
2023-04-09T08:02:24.249Z,83926.59
2023-04-09T08:05:27.292Z,83924.16
2023-04-09T08:08:29.762Z,83901.22
2023-04-09T08:11:33.127Z,83892.50
2023-04-09T08:14:35.861Z,83879.81
2023-04-09T08:17:38.891Z,83845.00
2023-04-09T08:20:45.517Z,83848.94
2023-04-09T08:23:48.595Z,83848.94
2023-04-09T08:26:51.519Z,83827.56
2023-04-09T08:29:54.525Z,83824.38
2023-04-09T08:32:57.006Z,83835.44
2023-04-09T08:36:00.837Z,83835.47
2023-04-09T08:39:05.088Z,83837.84
2023-04-09T08:42:08.943Z,83825.16
2023-04-09T08:45:11.865Z,83832.31
2023-04-09T08:48:14.684Z,83837.88
2023-04-09T08:51:22.278Z,83803.81
2023-04-09T08:54:26.841Z,83795.06
2023-04-09T08:57:29.260Z,83786.25
2023-04-09T09:00:32.561Z,83770.41
2023-04-09T09:03:53.843Z,83743.50
2023-04-09T09:07:06.816Z,83756.16
2023-04-09T09:10:09.956Z,83756.94
2023-04-09T09:13:20.296Z,83819.53
2023-04-09T09:16:22.643Z,83827.44
2023-04-09T09:19:25.299Z,83813.25
2023-04-09T09:22:27.735Z,83787.06
2023-04-09T09:25:30.837Z,83772.00
2023-04-09T09:28:36.460Z,83776.75
2023-04-09T09:31:49.961Z,83754.53
2023-04-09T09:35:06.461Z,83733.91
2023-04-09T09:38:09.129Z,83752.97
2023-04-09T09:41:18.559Z,83772.03
2023-04-09T09:44:32.924Z,83784.66
2023-04-09T09:47:36.725Z,83772.00
2023-04-09T09:50:43.179Z,83772.03
2023-04-09T09:53:47.726Z,83775.97
2023-04-09T09:56:52.713Z,83775.19
2023-04-09T10:00:02.145Z,83783.09
2023-04-09T10:03:32.200Z,83780.78
2023-04-09T10:06:35.678Z,83770.44
2023-04-09T10:09:41.574Z,83775.97
2023-04-09T10:12:45.465Z,83797.37
2023-04-09T10:15:48.814Z,83792.62
2023-04-09T10:18:52.003Z,83791.06
2023-04-09T10:22:01.111Z,83791.84
2023-04-09T10:25:06.525Z,83779.97
2023-04-09T10:28:17.693Z,83771.28
2023-04-09T10:31:21.011Z,83772.00
2023-04-09T10:34:27.112Z,83738.72
2023-04-09T10:37:30.044Z,83741.88
2023-04-09T10:40:32.445Z,83737.13
2023-04-09T10:43:36.973Z,83744.25
2023-04-09T10:46:42.230Z,83732.38
2023-04-09T10:49:44.960Z,83775.97
2023-04-09T10:52:52.287Z,83737.97
2023-04-09T10:55:56.310Z,83738.72
2023-04-09T10:58:58.679Z,83707.00
2023-04-09T11:02:01.521Z,83695.91
2023-04-09T11:05:26.105Z,83683.22
2023-04-09T11:08:33.509Z,83678.47
2023-04-09T11:11:37.031Z,83675.31
2023-04-09T11:14:39.841Z,83678.53
2023-04-09T11:17:43.188Z,83697.53
2023-04-09T11:20:46.308Z,83691.19
2023-04-09T11:23:52.997Z,83694.31
2023-04-09T11:26:56.872Z,83700.69
2023-04-09T11:29:59.317Z,83699.09
2023-04-09T11:33:02.437Z,83716.53
2023-04-09T11:36:06.502Z,83710.22
2023-04-09T11:39:09.274Z,83703.88
2023-04-09T11:42:15.745Z,83703.91
2023-04-09T11:45:20.164Z,83684.84
2023-04-09T11:48:24.967Z,83665.78
2023-04-09T11:51:28.723Z,83651.53
2023-04-09T11:54:34.721Z,83649.94
2023-04-09T11:57:43.384Z,83652.28
2023-04-09T12:00:46.182Z,83662.66
2023-04-09T12:03:56.351Z,83626.94
2023-04-09T12:06:59.026Z,83618.97
2023-04-09T12:10:10.667Z,83601.53
2023-04-09T12:13:13.759Z,83583.28
2023-04-09T12:16:20.756Z,83609.56
2023-04-09T12:19:25.900Z,83629.31
2023-04-09T12:22:28.706Z,83586.53
2023-04-09T12:25:35.646Z,83553.16
2023-04-09T12:28:38.226Z,83542.06
2023-04-09T12:31:40.679Z,83569.09
2023-04-09T12:34:43.480Z,83567.53
2023-04-09T12:37:46.228Z,83551.63
2023-04-09T12:40:48.950Z,83581.81
2023-04-09T12:43:51.678Z,83573.84
2023-04-09T12:46:55.345Z,83531.00
2023-04-09T12:49:57.716Z,83523.00
2023-04-09T12:53:00.567Z,83503.97
2023-04-09T12:56:03.150Z,83502.44
2023-04-09T12:59:06.037Z,83477.00
2023-04-09T13:02:08.841Z,83461.13
2023-04-09T13:05:11.650Z,83462.72
2023-04-09T13:08:14.002Z,83461.09
2023-04-09T13:11:16.631Z,83465.91
2023-04-09T13:14:18.928Z,83422.97
2023-04-09T13:17:22.144Z,83442.06
2023-04-09T13:20:24.955Z,83457.22
2023-04-09T13:23:27.618Z,83448.50
2023-04-09T13:26:31.670Z,83462.84
2023-04-09T13:29:34.426Z,83499.31
2023-04-09T13:32:36.890Z,83512.81
2023-04-09T13:35:39.936Z,83478.66
2023-04-09T13:38:42.496Z,83529.53
2023-04-09T13:41:45.322Z,83486.59
2023-04-09T13:44:47.774Z,83514.44
2023-04-09T13:47:50.520Z,83507.25
2023-04-09T13:50:52.981Z,83494.59
2023-04-09T13:53:56.126Z,83452.47
2023-04-09T13:56:58.513Z,83454.84
2023-04-09T14:00:04.477Z,83427.88
2023-04-09T14:03:07.609Z,83421.50
2023-04-09T14:06:10.586Z,83458.06
2023-04-09T14:09:13.284Z,83470.81
2023-04-09T14:12:16.057Z,83505.78
2023-04-09T14:15:18.424Z,83481.94
2023-04-09T14:18:21.113Z,83431.09
2023-04-09T14:21:24.331Z,83441.44
2023-04-09T14:24:26.973Z,83416.78
2023-04-09T14:27:29.386Z,83419.16
2023-04-09T14:30:32.180Z,83445.44
2023-04-09T14:33:34.817Z,83419.22
2023-04-09T14:36:37.533Z,83427.94
2023-04-09T14:39:39.864Z,83462.13
2023-04-09T14:42:42.506Z,83445.44
2023-04-09T14:45:44.796Z,83435.12
2023-04-09T14:48:47.542Z,83437.59
2023-04-09T14:51:50.074Z,83454.97
2023-04-09T14:54:52.798Z,83436.03
2023-04-09T14:57:55.272Z,83424.84
2023-04-09T15:00:58.202Z,83420.06
2023-04-09T15:04:00.856Z,83439.09
2023-04-09T15:07:03.729Z,83435.94
2023-04-09T15:10:06.738Z,83425.63
2023-04-09T15:13:09.341Z,83445.50
2023-04-09T15:16:20.403Z,83475.69
2023-04-09T15:19:23.172Z,83470.91
2023-04-09T15:22:25.704Z,83486.78
2023-04-09T15:25:28.474Z,83503.50
2023-04-09T15:28:31.002Z,83491.59
2023-04-09T15:31:34.449Z,83482.84
2023-04-09T15:34:37.140Z,83504.31
2023-04-09T15:37:40.209Z,83513.88
2023-04-09T15:40:42.882Z,83514.59
2023-04-09T15:43:45.507Z,83529.69
2023-04-09T15:46:47.888Z,83526.47
2023-04-09T15:49:50.671Z,83537.59
2023-04-09T15:52:53.874Z,83534.44
2023-04-09T15:55:58.323Z,83543.94
2023-04-09T15:59:02.245Z,83556.66
2023-04-09T16:02:05.078Z,83545.53
2023-04-09T16:05:08.276Z,83546.34
2023-04-09T16:08:11.703Z,83550.34
2023-04-09T16:11:15.477Z,83555.09
2023-04-09T16:14:17.953Z,83556.66
2023-04-09T16:17:20.574Z,83555.06
2023-04-09T16:20:22.985Z,83558.25
2023-04-09T16:23:28.519Z,83565.38
2023-04-09T16:26:32.735Z,83566.97
2023-04-09T16:29:36.384Z,83569.31
2023-04-09T16:32:38.864Z,83574.94
2023-04-09T16:35:42.166Z,83566.19
2023-04-09T16:38:44.648Z,83575.69
2023-04-09T16:41:47.447Z,83574.09
2023-04-09T16:44:49.994Z,83578.91
2023-04-09T16:47:56.259Z,83589.97
2023-04-09T16:50:58.702Z,83591.53
2023-04-09T16:54:01.788Z,83589.97
2023-04-09T16:57:04.193Z,83594.72
2023-04-09T17:00:07.903Z,83600.25
2023-04-09T17:03:10.625Z,83607.44
2023-04-09T17:06:13.371Z,83604.25
2023-04-09T17:09:16.357Z,83599.53
2023-04-09T17:12:18.989Z,83597.91
2023-04-09T17:15:22.698Z,83602.66
2023-04-09T17:18:25.547Z,83607.44
2023-04-09T17:21:27.995Z,83613.75
2023-04-09T17:24:30.988Z,83613.78
2023-04-09T17:27:33.376Z,83620.13
2023-04-09T17:30:36.260Z,83621.75
2023-04-09T17:33:38.698Z,83627.22
2023-04-09T17:36:42.444Z,83630.44
2023-04-09T17:39:44.801Z,83626.44
2023-04-09T17:42:47.461Z,83638.34
2023-04-09T17:45:49.940Z,83647.03
2023-04-09T17:48:53.078Z,83640.75
2023-04-09T17:51:55.819Z,83642.25
2023-04-09T17:54:58.460Z,83640.69
2023-04-09T17:58:00.954Z,83645.44
2023-04-09T18:01:07.508Z,83647.03
2023-04-09T18:04:11.120Z,83654.97
2023-04-09T18:07:13.684Z,83666.00
2023-04-09T18:10:16.447Z,83669.16
2023-04-09T18:13:18.850Z,83684.28
2023-04-09T18:16:23.389Z,83688.22
2023-04-09T18:19:25.897Z,83694.53
2023-04-09T18:22:28.545Z,83704.03
2023-04-09T18:25:30.811Z,83715.94
2023-04-09T18:28:34.871Z,83724.62
2023-04-09T18:31:37.352Z,83732.56
2023-04-09T18:34:40.967Z,83737.34
2023-04-09T18:37:43.678Z,83746.81
2023-04-09T18:40:46.658Z,83748.41
2023-04-09T18:43:48.977Z,83759.53
2023-04-09T18:46:52.253Z,83761.06
2023-04-09T18:49:54.693Z,83769.78
2023-04-09T18:52:57.390Z,83775.31
2023-04-09T18:55:59.722Z,83778.50
2023-04-09T18:59:02.446Z,83784.06
2023-04-09T19:02:05.501Z,83788.00
2023-04-09T19:05:09.190Z,83797.53
2023-04-09T19:08:11.816Z,83801.50
2023-04-09T19:11:14.978Z,83803.87
2023-04-09T19:14:17.439Z,83811.78
2023-04-09T19:17:20.627Z,83814.97
2023-04-09T19:20:23.155Z,83824.41
2023-04-09T19:23:26.722Z,83822.84
2023-04-09T19:26:29.633Z,83826.03
2023-04-09T19:29:32.288Z,83827.59
2023-04-09T19:32:34.836Z,83831.59
2023-04-09T19:35:40.697Z,83837.09
2023-04-09T19:38:43.172Z,83840.28
2023-04-09T19:41:46.169Z,83843.44
2023-04-09T19:44:49.623Z,83851.34
2023-04-09T19:47:55.598Z,83846.66
2023-04-09T19:50:58.526Z,83845.03
2023-04-09T19:54:01.427Z,83852.94
2023-04-09T19:57:04.238Z,83849.78
2023-04-09T20:00:08.774Z,83853.75
2023-04-09T20:03:13.535Z,83859.31
2023-04-09T20:06:16.572Z,83861.69
2023-04-09T20:09:19.067Z,83860.13
2023-04-09T20:12:23.789Z,83868.78
2023-04-09T20:15:26.651Z,83878.28
2023-04-09T20:18:29.398Z,83879.87
2023-04-09T20:21:31.772Z,83890.94
2023-04-09T20:24:35.399Z,83886.25
2023-04-09T20:27:38.677Z,83886.19
2023-04-09T20:30:41.430Z,83883.06
2023-04-09T20:33:43.830Z,83888.56
2023-04-09T20:36:48.732Z,83892.56
2023-04-09T20:39:51.704Z,83898.06
2023-04-09T20:42:54.391Z,83895.72
2023-04-09T20:45:57.371Z,83902.03
2023-04-09T20:49:01.541Z,83900.47
2023-04-09T20:52:04.034Z,83904.41
2023-04-09T20:55:07.145Z,83908.38
2023-04-09T20:58:09.570Z,83910.72
2023-04-09T21:01:12.314Z,83912.31
2023-04-09T21:04:15.050Z,83913.09
2023-04-09T21:07:17.852Z,83911.56
2023-04-09T21:10:20.428Z,83914.69
2023-04-09T21:13:23.700Z,83915.47
2023-04-09T21:16:28.575Z,83921.06
2023-04-09T21:19:31.645Z,83926.56
2023-04-09T21:22:34.632Z,83924.97
2023-04-09T21:25:37.313Z,83930.53
2023-04-09T21:28:39.756Z,83939.28
2023-04-09T21:31:42.751Z,83946.38
2023-04-09T21:34:45.314Z,83952.75
2023-04-09T21:37:48.152Z,83955.06
2023-04-09T21:40:50.698Z,83962.19
2023-04-09T21:43:53.421Z,83963.81
2023-04-09T21:46:56.370Z,83966.94
2023-04-09T21:49:59.607Z,83966.19
2023-04-09T21:53:03.242Z,83964.56
2023-04-09T21:56:06.328Z,83974.09
2023-04-09T21:59:08.769Z,83977.28
2023-04-09T22:02:11.899Z,83982.75
2023-04-09T22:05:14.766Z,83985.94
2023-04-09T22:08:17.259Z,83985.97
2023-04-09T22:11:20.152Z,83988.31
2023-04-09T22:14:22.531Z,83990.69
2023-04-09T22:17:25.591Z,83997.81
2023-04-09T22:20:27.973Z,84001.72
2023-04-09T22:23:30.710Z,83998.59
2023-04-09T22:26:33.470Z,84005.75
2023-04-09T22:29:37.129Z,84009.66
2023-04-09T22:32:39.546Z,84012.03
2023-04-09T22:35:42.227Z,84014.38
2023-04-09T22:38:44.886Z,84015.19
2023-04-09T22:41:47.594Z,84020.72
2023-04-09T22:44:50.205Z,84025.50
2023-04-09T22:47:52.975Z,84028.62
2023-04-09T22:50:55.359Z,84030.19
2023-04-09T22:53:58.031Z,84044.44
2023-04-09T22:57:01.280Z,84047.63
2023-04-09T23:00:05.653Z,84052.34
2023-04-09T23:03:08.346Z,84055.50
2023-04-09T23:06:11.180Z,84063.41
2023-04-09T23:09:13.536Z,84076.06
2023-04-09T23:12:16.205Z,84076.06
2023-04-09T23:15:19.051Z,84077.63
2023-04-09T23:18:23.050Z,84080.81
2023-04-09T23:21:26.365Z,84086.34
2023-04-09T23:24:29.580Z,84087.16
2023-04-09T23:27:32.095Z,84091.88
2023-04-09T23:30:34.952Z,84094.25
2023-04-09T23:33:37.335Z,84093.44
2023-04-09T23:36:40.065Z,84095.06
2023-04-09T23:39:42.530Z,84088.72
2023-04-09T23:42:45.827Z,84090.31
2023-04-09T23:45:50.492Z,84095.03
2023-04-09T23:48:53.340Z,84090.31
2023-04-09T23:51:55.665Z,84090.31
2023-04-09T23:55:00.002Z,84095.81
2023-04-09T23:58:02.489Z,84090.31
